Time;durP1;ratioP1;P1;durP2;ratioP2;P2;SDS_P1;SDS_P2;PMS_P1;PMS_P2;Temp;Humidity;BMP_temperature;BMP_pressure;BME280_temperature;BME280_humidity;BME280_pressure;Samples;Min_cycle;Max_cycle;Signal;HPM_P1;HPM_P2
2023/05/13 00:00:43;;;;;;;14.20;11.07;;;;;;;13.46;100.00;101992.03;5051856;28;20021;-74
2023/05/13 00:03:11;;;;;;;11.52;10.32;;;;;;;13.43;100.00;101987.72;5052449;28;20033;-74
2023/05/13 00:05:37;;;;;;;14.63;11.05;;;;;;;13.44;100.00;101991.19;5051850;28;20029;-74
2023/05/13 00:08:05;;;;;;;11.77;10.57;;;;;;;13.43;100.00;101984.22;5051115;28;20473;-74
2023/05/13 00:10:34;;;;;;;13.50;11.32;;;;;;;13.42;100.00;101991.22;5051991;28;20032;-74
2023/05/13 00:13:00;;;;;;;12.90;10.65;;;;;;;13.38;100.00;101979.09;5050084;28;20025;-74
2023/05/13 00:15:26;;;;;;;13.30;10.70;;;;;;;13.39;100.00;101987.81;5051027;28;20040;-74
2023/05/13 00:17:51;;;;;;;11.60;10.40;;;;;;;13.36;100.00;101980.84;5052535;28;20025;-74
2023/05/13 00:20:16;;;;;;;11.48;10.35;;;;;;;13.25;100.00;101967.94;5052766;28;20021;-74
2023/05/13 00:22:42;;;;;;;11.20;10.05;;;;;;;13.22;100.00;101978.44;5051733;28;20427;-74
2023/05/13 00:25:07;;;;;;;11.05;9.95;;;;;;;13.21;100.00;101986.31;5052629;28;20102;-74
2023/05/13 00:27:33;;;;;;;11.98;10.43;;;;;;;13.17;100.00;101977.63;5050333;28;20065;-74
2023/05/13 00:29:58;;;;;;;11.10;10.00;;;;;;;13.12;100.00;101975.09;5050985;28;20049;-74
2023/05/13 00:32:24;;;;;;;11.95;10.68;;;;;;;13.09;100.00;101983.00;5051667;28;20048;-74
2023/05/13 00:34:49;;;;;;;11.35;10.00;;;;;;;13.06;100.00;101982.19;5052265;28;20056;-73
2023/05/13 00:37:15;;;;;;;15.93;9.80;;;;;;;12.96;100.00;101975.38;5050308;28;20040;-74
2023/05/13 00:39:40;;;;;;;11.30;9.75;;;;;;;12.95;100.00;101978.84;5051000;28;20469;-74
2023/05/13 00:42:06;;;;;;;14.18;10.00;;;;;;;12.93;100.00;101978.03;5052597;28;20020;-74
2023/05/13 00:44:32;;;;;;;11.48;10.10;;;;;;;12.97;100.00;101987.56;5049689;28;20025;-74
2023/05/13 00:46:57;;;;;;;10.82;9.40;;;;;;;12.97;100.00;101987.56;5048995;28;20546;-73
2023/05/13 00:49:23;;;;;;;11.80;9.98;;;;;;;12.93;100.00;101980.66;5050452;28;20119;-74
2023/05/13 00:51:49;;;;;;;10.93;9.70;;;;;;;12.92;100.00;101986.78;5050968;28;20469;-74
2023/05/13 00:54:14;;;;;;;11.88;9.75;;;;;;;12.93;100.00;101984.13;5052267;28;20024;-73
2023/05/13 00:56:40;;;;;;;10.88;9.77;;;;;;;12.90;100.00;101989.41;5051481;28;20695;-74
2023/05/13 00:59:05;;;;;;;14.00;9.68;;;;;;;12.85;100.00;101981.63;5050990;28;20032;-74
2023/05/13 01:02:06;;;;;;;12.07;9.88;;;;;;;12.78;100.00;101982.59;5052049;28;20025;-74
2023/05/13 01:04:57;;;;;;;14.20;10.35;;;;;;;12.75;100.00;101987.91;5031958;28;20049;-74
2023/05/13 01:07:48;;;;;;;12.93;9.95;;;;;;;12.68;100.00;101991.47;5051890;28;20028;-74
2023/05/13 01:10:29;;;;;;;12.70;10.15;;;;;;;12.64;100.00;101995.00;5053300;28;20029;-73
2023/05/13 01:12:59;;;;;;;10.63;9.52;;;;;;;12.60;100.00;101993.34;5050670;28;20572;-74
2023/05/13 01:15:25;;;;;;;13.18;9.68;;;;;;;12.60;100.00;101993.34;5051457;28;20028;-74
2023/05/13 01:18:09;;;;;;;11.63;10.43;;;;;;;12.55;100.00;101990.75;5049730;28;20021;-74
2023/05/13 01:20:39;;;;;;;11.98;9.60;;;;;;;12.53;100.00;101991.69;5051650;28;20031;-74
2023/05/13 01:23:05;;;;;;;12.77;9.77;;;;;;;12.43;100.00;101975.25;5051351;28;20012;-74
2023/05/13 01:25:31;;;;;;;13.05;10.55;;;;;;;12.42;100.00;101989.19;5051428;28;20431;-74
2023/05/13 01:27:56;;;;;;;11.57;10.30;;;;;;;12.38;100.00;101985.75;5049614;28;20086;-73
2023/05/13 01:30:22;;;;;;;12.70;10.00;;;;;;;12.31;100.00;101985.88;5050307;28;20086;-74
2023/05/13 01:32:49;;;;;;;10.88;9.77;;;;;;;12.25;100.00;101989.41;5051238;28;20050;-73
2023/05/13 01:35:15;;;;;;;11.02;9.65;;;;;;;12.19;100.00;101985.09;5050792;28;20025;-74
2023/05/13 01:37:44;;;;;;;11.88;10.60;;;;;;;12.15;100.00;101990.41;5050544;28;20503;-74
2023/05/13 01:40:10;;;;;;;11.85;10.35;;;;;;;12.13;100.00;101986.94;5051195;28;20021;-74
2023/05/13 01:42:36;;;;;;;12.82;10.40;;;;;;;12.07;100.00;101987.03;5050636;28;20033;-73
2023/05/13 01:45:02;;;;;;;12.55;10.43;;;;;;;12.01;100.00;101992.31;5051401;28;20017;-74
2023/05/13 01:47:30;;;;;;;11.48;10.13;;;;;;;11.99;100.00;101991.47;5050100;28;20033;-74
2023/05/13 01:49:55;;;;;;;11.55;10.35;;;;;;;11.97;100.00;101998.44;5045717;28;20424;-74
2023/05/13 01:52:21;;;;;;;12.98;11.13;;;;;;;11.89;100.00;101994.16;5050234;28;20036;-74
2023/05/13 01:54:46;;;;;;;11.57;10.38;;;;;;;11.83;100.00;101988.97;5047475;28;20032;-73
2023/05/13 01:57:11;;;;;;;11.60;9.73;;;;;;;11.87;100.00;101995.94;5052464;28;20056;-74
2023/05/13 01:59:36;;;;;;;14.10;10.50;;;;;;;11.84;100.00;101995.09;5054366;28;20473;-74
2023/05/13 02:02:02;;;;;;;12.98;10.00;;;;;;;11.81;100.00;101987.28;5053822;28;20032;-74
2023/05/13 02:04:28;;;;;;;11.90;9.68;;;;;;;11.80;100.00;101999.44;5054205;28;20477;-74
2023/05/13 02:06:53;;;;;;;14.43;10.60;;;;;;;11.78;100.00;101993.41;5053173;28;20068;-74
2023/05/13 02:09:19;;;;;;;10.80;9.70;;;;;;;11.79;100.00;101995.13;5055245;28;20431;-74
2023/05/13 02:11:45;;;;;;;11.65;10.00;;;;;;;11.79;100.00;101997.72;5054570;28;20035;-74
2023/05/13 02:14:10;;;;;;;10.73;9.63;;;;;;;11.75;100.00;101998.66;5054644;28;20024;-74
2023/05/13 02:16:36;;;;;;;13.13;10.85;;;;;;;11.72;100.00;101996.06;5055391;28;20033;-74
2023/05/13 02:19:01;;;;;;;11.80;10.60;;;;;;;11.64;100.00;101993.53;5054753;28;20437;-74
2023/05/13 02:21:26;;;;;;;13.25;10.45;;;;;;;11.62;100.00;101984.84;5054301;28;20044;-74
2023/05/13 02:23:51;;;;;;;11.13;9.93;;;;;;;11.57;100.00;101991.84;5054513;28;20488;-74
2023/05/13 02:26:19;;;;;;;12.40;11.10;;;;;;;11.56;100.00;101991.88;5055091;28;20044;-74
2023/05/13 02:28:45;;;;;;;12.30;10.98;;;;;;;11.53;100.00;101991.88;5053732;28;20048;-74
2023/05/13 02:31:10;;;;;;;12.60;10.98;;;;;;;11.49;100.00;101998.88;5055179;28;20017;-74
2023/05/13 02:33:35;;;;;;;12.82;11.02;;;;;;;11.44;100.00;101996.34;5055105;28;20032;-74
2023/05/13 02:36:01;;;;;;;12.00;10.80;;;;;;;11.39;100.00;101987.66;5053582;28;20502;-74
2023/05/13 02:38:26;;;;;;;13.38;10.43;;;;;;;11.36;100.00;101989.44;5054559;28;20055;-74
2023/05/13 02:40:52;;;;;;;12.35;10.80;;;;;;;11.33;100.00;101998.16;5054277;28;20096;-74
2023/05/13 02:43:17;;;;;;;12.18;10.85;;;;;;;11.30;100.00;101995.56;5053802;28;20059;-74
2023/05/13 02:45:42;;;;;;;11.38;10.27;;;;;;;11.27;100.00;101992.09;5054547;28;20461;-74
2023/05/13 02:48:09;;;;;;;14.00;11.05;;;;;;;11.27;100.00;101992.97;5054538;28;20467;-74
2023/05/13 02:50:35;;;;;;;13.00;11.13;;;;;;;11.15;100.00;101975.69;5053798;28;20016;-74
2023/05/13 02:53:00;;;;;;;13.13;11.18;;;;;;;11.20;100.00;101991.28;5053860;28;20510;-74
2023/05/13 02:55:25;;;;;;;13.40;11.48;;;;;;;11.18;100.00;101985.22;5054389;28;20051;-74
2023/05/13 02:57:51;;;;;;;12.45;10.80;;;;;;;11.14;100.00;101989.59;5053081;28;20025;-74
2023/05/13 03:00:16;;;;;;;14.45;11.23;;;;;;;11.06;100.00;101980.97;5054464;28;20029;-73
2023/05/13 03:02:41;;;;;;;13.57;11.57;;;;;;;11.01;100.00;101986.19;5054250;28;20065;-74
2023/05/13 03:05:07;;;;;;;15.85;12.50;;;;;;;11.02;100.00;101982.72;5053648;28;20439;-74
2023/05/13 03:07:33;;;;;;;14.73;12.23;;;;;;;10.96;100.00;101987.13;5052140;28;20079;-74
2023/05/13 03:09:58;;;;;;;13.18;11.68;;;;;;;10.96;100.00;101982.78;5051817;28;20111;-74
2023/05/13 03:12:27;;;;;;;16.35;13.15;;;;;;;10.90;100.00;101987.16;5052757;28;20060;-74
2023/05/13 03:14:52;;;;;;;14.18;11.95;;;;;;;10.90;100.00;101987.16;5052359;28;20093;-74
2023/05/13 03:17:17;;;;;;;17.00;12.30;;;;;;;10.85;100.00;101991.53;5052401;28;20132;-74
2023/05/13 03:19:46;;;;;;;14.23;11.70;;;;;;;10.81;100.00;101988.06;5052661;28;20025;-74
2023/05/13 03:22:11;;;;;;;14.40;11.88;;;;;;;10.75;100.00;101982.91;5053013;28;20017;-74
2023/05/13 03:24:36;;;;;;;14.15;11.65;;;;;;;10.74;100.00;101986.38;5051036;28;20044;-74
2023/05/13 03:27:01;;;;;;;14.48;12.07;;;;;;;10.77;100.00;101991.59;5053074;28;20021;-74
2023/05/13 03:29:27;;;;;;;13.68;11.55;;;;;;;10.74;100.00;101991.59;5051073;28;20029;-74
2023/05/13 03:31:53;;;;;;;14.07;12.55;;;;;;;10.69;100.00;101999.47;5052778;28;20468;-74
2023/05/13 03:34:18;;;;;;;12.98;11.65;;;;;;;10.69;100.00;102003.78;5047180;28;20484;-74
2023/05/13 03:36:43;;;;;;;12.88;11.55;;;;;;;10.65;100.00;101996.88;5045962;28;20049;-74
2023/05/13 03:39:09;;;;;;;12.90;11.60;;;;;;;10.63;100.00;102001.25;5051000;28;20020;-74
2023/05/13 03:41:34;;;;;;;13.75;12.35;;;;;;;10.62;100.00;102008.16;5052983;28;20028;-74
2023/05/13 03:44:00;;;;;;;14.35;11.70;;;;;;;10.54;100.00;102003.00;5051269;28;20094;-74
2023/05/13 03:46:26;;;;;;;13.55;11.85;;;;;;;10.53;100.00;102009.09;5051879;28;20025;-73
2023/05/13 03:48:51;;;;;;;13.32;11.93;;;;;;;10.41;100.00;101993.50;5051837;28;20040;-74
2023/05/13 03:51:17;;;;;;;15.30;12.52;;;;;;;10.41;100.00;101998.72;5045916;28;20033;-74
2023/05/13 03:53:42;;;;;;;17.40;12.60;;;;;;;10.37;100.00;101993.53;5043582;28;20441;-74
2023/05/13 03:56:07;;;;;;;15.55;12.48;;;;;;;10.37;100.00;102006.59;5052382;28;20448;-73
2023/05/13 03:58:33;;;;;;;15.52;12.90;;;;;;;10.32;100.00;102009.19;5050767;28;20032;-74
2023/05/13 04:00:58;;;;;;;15.63;12.35;;;;;;;10.28;100.00;102007.47;5050650;28;20052;-74
2023/05/13 04:03:23;;;;;;;16.70;13.43;;;;;;;10.26;100.00;102007.47;5051405;28;20401;-73
2023/05/13 04:05:50;;;;;;;18.40;13.52;;;;;;;10.21;100.00;101996.16;5052777;28;20119;-73
2023/05/13 04:08:16;;;;;;;15.85;13.40;;;;;;;10.21;100.00;102005.72;5049752;28;20025;-74
2023/05/13 04:10:41;;;;;;;14.80;12.88;;;;;;;10.24;100.00;102008.31;5052608;28;20033;-73
2023/05/13 04:13:07;;;;;;;18.58;12.27;;;;;;;10.23;100.00;102003.97;5051184;28;20028;-73
2023/05/13 04:15:35;;;;;;;21.20;13.10;;;;;;;10.23;100.00;102006.56;5050041;28;20028;-74
2023/05/13 04:18:00;;;;;;;15.05;12.75;;;;;;;10.13;100.00;101991.84;5051814;28;20029;-73
2023/05/13 04:20:25;;;;;;;14.45;12.95;;;;;;;10.25;100.00;102003.09;5050876;28;20427;-73
2023/05/13 04:22:51;;;;;;;16.45;12.70;;;;;;;10.24;100.00;102008.31;5050949;28;20056;-73
2023/05/13 04:25:17;;;;;;;16.30;12.52;;;;;;;10.24;100.00;102000.50;5051693;28;20116;-73
2023/05/13 04:27:42;;;;;;;15.43;13.40;;;;;;;10.24;100.00;102009.19;5050073;28;20469;-74
2023/05/13 04:30:08;;;;;;;17.45;13.05;;;;;;;10.18;100.00;101990.09;5051149;28;20377;-74
2023/05/13 04:32:34;;;;;;;14.18;12.65;;;;;;;10.32;100.00;102011.78;5052305;28;20021;-74
2023/05/13 04:34:59;;;;;;;17.10;13.23;;;;;;;10.35;100.00;102011.78;5049825;28;20366;-74
2023/05/13 04:37:30;;;;;;;15.18;13.38;;;;;;;10.39;100.00;102016.09;5051751;28;20107;-74
2023/05/13 04:39:55;;;;;;;15.75;13.38;;;;;;;10.43;100.00;102016.94;5050929;28;20075;-73
2023/05/13 04:42:23;;;;;;;16.30;13.60;;;;;;;10.49;100.00;102016.94;5051455;28;20060;-73
2023/05/13 04:44:49;;;;;;;15.80;13.07;;;;;;;10.51;100.00;102023.88;5052392;28;20032;-74
2023/05/13 04:47:14;;;;;;;14.30;12.77;;;;;;;10.50;100.00;102019.56;5053323;28;20418;-74
2023/05/13 04:49:39;;;;;;;15.60;13.35;;;;;;;10.58;100.00;102021.25;5051403;28;20037;-73
2023/05/13 04:52:05;;;;;;;17.83;13.48;;;;;;;10.65;100.00;102023.81;5052334;28;20221;-74
2023/05/13 04:54:32;;;;;;;14.75;12.88;;;;;;;10.69;100.00;102022.06;5052314;28;20534;-74
2023/05/13 04:56:57;;;;;;;16.35;13.25;;;;;;;10.74;100.00;102025.50;5051123;28;20037;-73
2023/05/13 04:59:23;;;;;;;16.55;13.57;;;;;;;10.78;100.00;102029.84;5051381;28;20100;-74
2023/05/13 05:01:48;;;;;;;18.67;14.30;;;;;;;10.81;100.00;102026.34;5044281;28;20070;-74
2023/05/13 05:04:13;;;;;;;15.68;12.85;;;;;;;10.86;100.00;102028.06;5050434;28;20024;-73
2023/05/13 05:06:39;;;;;;;14.70;13.20;;;;;;;10.92;100.00;102029.75;5047618;28;20040;-74
2023/05/13 05:09:04;;;;;;;16.27;12.98;;;;;;;10.96;100.00;102027.13;5051002;28;20025;-74
2023/05/13 05:11:29;;;;;;;14.70;12.85;;;;;;;11.04;100.00;102040.13;5041149;28;20038;-74
2023/05/13 05:13:55;;;;;;;14.10;12.32;;;;;;;11.07;100.00;102023.59;5050725;28;20100;-74
2023/05/13 05:16:20;;;;;;;16.35;12.98;;;;;;;11.15;100.00;102034.81;5051494;28;20033;-74
2023/05/13 05:18:45;;;;;;;17.60;13.13;;;;;;;11.17;100.00;102036.53;5049058;28;20502;-74
2023/05/13 05:21:11;;;;;;;15.73;12.40;;;;;;;11.21;100.00;102040.00;5044094;28;20026;-74
2023/05/13 05:23:37;;;;;;;14.32;12.80;;;;;;;11.23;100.00;102033.03;5048056;28;20025;-74
2023/05/13 05:26:02;;;;;;;14.30;12.75;;;;;;;11.30;100.00;102039.94;5051936;28;20377;-74
2023/05/13 05:28:28;;;;;;;14.73;12.65;;;;;;;11.35;100.00;102042.53;5050811;28;20021;-74
2023/05/13 05:30:54;;;;;;;17.02;13.40;;;;;;;11.43;100.00;102046.81;5049220;28;20112;-74
2023/05/13 05:33:19;;;;;;;22.42;13.50;;;;;;;11.46;100.00;102044.16;5054385;28;20029;-73
2023/05/13 05:35:45;;;;;;;15.80;13.02;;;;;;;11.50;100.00;102050.22;5055086;28;20033;-74
2023/05/13 05:38:11;;;;;;;17.67;13.48;;;;;;;11.44;100.00;102056.38;5053754;28;20033;-73
2023/05/13 05:40:42;;;;;;;17.30;13.45;;;;;;;11.39;100.00;102060.75;5053514;28;20105;-74
2023/05/13 05:43:07;;;;;;;20.27;14.10;;;;;;;11.37;100.00;102057.28;5053197;28;20033;-73
2023/05/13 05:45:37;;;;;;;19.00;14.05;;;;;;;11.43;100.00;102062.47;5054460;28;20486;-74
2023/05/13 05:48:03;;;;;;;15.70;13.57;;;;;;;11.51;100.00;102061.53;5055677;28;20029;-74
2023/05/13 05:50:29;;;;;;;17.52;14.23;;;;;;;11.59;100.00;102067.59;5053993;28;20411;-73
2023/05/13 05:52:55;;;;;;;15.80;13.32;;;;;;;11.63;100.00;102070.13;5054641;28;20052;-73
2023/05/13 05:55:21;;;;;;;14.68;13.15;;;;;;;11.72;100.00;102069.22;5055604;28;20373;-73
2023/05/13 05:57:46;;;;;;;16.63;13.80;;;;;;;11.74;100.00;102062.25;5054945;28;20481;-73
2023/05/13 06:00:12;;;;;;;16.48;14.30;;;;;;;11.69;100.00;102054.41;5054609;28;20017;-73
2023/05/13 06:02:38;;;;;;;18.80;15.10;;;;;;;11.68;100.00;102057.06;5055299;28;20385;-74
2023/05/13 06:05:03;;;;;;;17.25;14.43;;;;;;;11.62;100.00;102052.75;5055110;28;20013;-74
2023/05/13 06:07:29;;;;;;;19.25;14.85;;;;;;;11.63;100.00;102058.84;5054107;28;20056;-74
2023/05/13 06:09:54;;;;;;;22.33;14.65;;;;;;;11.64;100.00;102060.56;5054855;28;20020;-74
2023/05/13 06:12:19;;;;;;;17.63;14.98;;;;;;;11.70;100.00;102060.50;5055444;28;20112;-74
2023/05/13 06:14:45;;;;;;;17.63;14.15;;;;;;;11.82;100.00;102064.78;5054051;28;20127;-74
2023/05/13 06:17:13;;;;;;;20.52;15.30;;;;;;;11.89;100.00;102071.69;5055180;28;20114;-73
2023/05/13 06:19:38;;;;;;;17.77;15.02;;;;;;;11.93;100.00;102074.28;5054841;28;20033;-74
2023/05/13 06:22:04;;;;;;;17.00;14.88;;;;;;;12.03;100.00;102075.03;5054098;28;20373;-74
2023/05/13 06:24:32;;;;;;;16.20;14.60;;;;;;;12.16;100.00;102074.06;5054962;28;20423;-73
2023/05/13 06:26:57;;;;;;;15.77;14.18;;;;;;;12.15;100.00;102074.91;5053649;28;20472;-74
2023/05/13 06:29:22;;;;;;;16.65;14.82;;;;;;;12.16;100.00;102073.16;5055156;28;20023;-74
2023/05/13 06:31:48;;;;;;;16.95;14.75;;;;;;;12.22;100.00;102080.94;5054437;28;20021;-74
2023/05/13 06:34:15;;;;;;;16.35;14.57;;;;;;;12.36;100.00;102078.19;5054139;28;20025;-74
2023/05/13 06:36:41;;;;;;;18.67;15.35;;;;;;;12.33;100.00;102079.09;5054260;28;20416;-74
2023/05/13 06:39:06;;;;;;;18.52;15.68;;;;;;;12.31;100.00;102080.84;5054534;28;20579;-74
2023/05/13 06:41:32;;;;;;;18.65;15.15;;;;;;;12.21;100.00;102074.00;5054038;28;20108;-74
2023/05/13 06:43:57;;;;;;;18.30;15.07;;;;;;;12.12;100.00;102085.41;5053246;28;20025;-74
2023/05/13 06:46:22;;;;;;;19.17;16.30;;;;;;;12.12;100.00;102084.53;5054533;28;20017;-74
2023/05/13 06:48:51;;;;;;;20.23;15.98;;;;;;;12.21;100.00;102078.38;5053123;28;20464;-73
2023/05/13 06:51:16;;;;;;;21.48;15.57;;;;;;;12.50;100.00;102083.28;5053685;28;20476;-74
2023/05/13 06:53:41;;;;;;;18.75;15.82;;;;;;;12.82;100.00;102078.50;5053234;28;20072;-74
2023/05/13 06:56:07;;;;;;;17.63;15.15;;;;;;;13.13;100.00;102084.19;5052925;28;20112;-74
2023/05/13 06:58:32;;;;;;;16.48;14.75;;;;;;;13.39;100.00;102087.34;5052246;28;20086;-74
2023/05/13 07:00:57;;;;;;;18.88;15.15;;;;;;;13.35;100.00;102076.91;5054033;28;20476;-73
2023/05/13 07:03:22;;;;;;;19.27;14.73;;;;;;;13.33;100.00;102075.19;5052347;28;20117;-74
2023/05/13 07:05:48;;;;;;;20.10;15.60;;;;;;;13.40;100.00;102091.69;5054127;28;20099;-74
2023/05/13 07:08:16;;;;;;;16.55;14.85;;;;;;;13.48;100.00;102090.69;5054029;28;20057;-74
2023/05/13 07:10:42;;;;;;;18.00;15.07;;;;;;;13.75;100.00;102088.50;5051453;28;20377;-74
2023/05/13 07:13:07;;;;;;;16.10;14.50;;;;;;;13.92;99.68;102082.97;5048318;28;20452;-74
2023/05/13 07:15:32;;;;;;;19.05;14.40;;;;;;;13.98;98.40;102080.22;5044949;28;20036;-74
2023/05/13 07:17:58;;;;;;;19.55;16.02;;;;;;;13.95;95.94;102072.41;5052947;28;20484;-74
2023/05/13 07:20:25;;;;;;;17.00;14.50;;;;;;;13.77;97.95;102071.88;5053930;28;20461;-74
2023/05/13 07:22:50;;;;;;;18.20;14.90;;;;;;;13.61;98.12;102087.88;5052860;28;20472;-74
2023/05/13 07:25:17;;;;;;;22.35;14.82;;;;;;;13.47;100.00;102086.34;5051936;28;20024;-74
2023/05/13 07:27:42;;;;;;;17.75;15.77;;;;;;;13.42;100.00;102075.06;5043850;28;20669;-74
2023/05/13 07:30:09;;;;;;;20.30;15.25;;;;;;;13.73;99.68;102080.69;5051530;28;20025;-74
2023/05/13 07:32:35;;;;;;;17.13;15.27;;;;;;;14.05;100.00;102073.97;5052016;28;20078;-73
2023/05/13 07:35:01;;;;;;;19.33;14.93;;;;;;;14.20;97.78;102073.72;5051695;28;20104;-74
2023/05/13 07:37:27;;;;;;;18.08;15.90;;;;;;;14.38;98.88;102082.09;5050573;28;20049;-73
2023/05/13 07:39:58;;;;;;;21.10;15.70;;;;;;;14.57;97.40;102078.25;5046055;28;20020;-74
2023/05/13 07:42:28;;;;;;;17.95;15.80;;;;;;;14.78;96.78;102081.31;5048771;28;20541;-74
2023/05/13 07:44:54;;;;;;;17.17;14.77;;;;;;;14.91;94.71;102077.53;5047771;28;20025;-74
2023/05/13 07:47:19;;;;;;;17.02;15.15;;;;;;;15.04;96.07;102080.75;5050332;28;20029;-74
2023/05/13 07:49:45;;;;;;;16.52;14.88;;;;;;;15.04;95.99;102084.28;5050200;28;20028;-77
2023/05/13 07:52:10;;;;;;;19.33;15.48;;;;;;;15.07;95.91;102078.91;5046546;28;20033;-77
2023/05/13 07:54:35;;;;;;;17.13;15.43;;;;;;;15.05;95.52;102078.09;5052935;28;20031;-77
2023/05/13 07:57:01;;;;;;;19.13;15.27;;;;;;;15.15;92.94;102084.03;5050693;28;20031;-77
2023/05/13 07:59:26;;;;;;;18.60;15.30;;;;;;;15.15;90.74;102077.00;5049139;28;20033;-78
2023/05/13 08:01:52;;;;;;;17.08;14.68;;;;;;;15.19;92.57;102062.88;5051612;28;20435;-78
2023/05/13 08:04:17;;;;;;;19.40;15.00;;;;;;;15.36;92.95;102078.25;5050774;28;20555;-78
2023/05/13 08:06:42;;;;;;;17.20;15.40;;;;;;;15.33;96.65;102069.59;5045630;28;20116;-77
2023/05/13 08:09:10;;;;;;;20.70;15.02;;;;;;;15.43;89.91;102073.72;5051424;28;20385;-77
2023/05/13 08:11:36;;;;;;;22.17;15.10;;;;;;;15.50;90.70;102087.56;5052949;28;20054;-77
2023/05/13 08:14:01;;;;;;;15.57;13.88;;;;;;;15.41;86.46;102086.03;5050169;28;20043;-77
2023/05/13 08:16:27;;;;;;;15.30;13.38;;;;;;;15.43;87.07;102084.22;5050990;28;20036;-77
2023/05/13 08:18:52;;;;;;;16.60;13.75;;;;;;;15.66;88.09;102083.66;5052786;28;20472;-78
2023/05/13 08:21:17;;;;;;;17.42;14.43;;;;;;;16.02;87.28;102087.19;5047963;28;20100;-78
2023/05/13 08:23:43;;;;;;;19.30;14.70;;;;;;;16.42;87.47;102086.09;5051182;28;20039;-78
2023/05/13 08:26:08;;;;;;;15.93;13.82;;;;;;;16.60;81.74;102074.16;5051371;28;20495;-78
2023/05/13 08:28:33;;;;;;;14.50;13.00;;;;;;;16.72;83.82;102081.69;5051873;28;20033;-78
2023/05/13 08:31:01;;;;;;;18.20;12.93;;;;;;;16.77;83.26;102081.59;5052473;28;20024;-79
2023/05/13 08:33:33;;;;;;;15.90;12.95;;;;;;;16.63;82.47;102081.97;5050148;28;20037;-78
2023/05/13 08:35:59;;;;;;;13.95;12.43;;;;;;;16.52;82.63;102086.69;5043287;28;20025;-78
2023/05/13 08:38:25;;;;;;;13.82;12.27;;;;;;;16.46;81.94;102077.19;5051083;28;20073;-78
2023/05/13 08:40:50;;;;;;;17.40;12.90;;;;;;;16.71;88.69;102084.34;5050270;28;20083;-78
2023/05/13 08:43:16;;;;;;;16.27;13.35;;;;;;;16.83;80.65;102078.78;5051788;28;20021;-78
2023/05/13 08:45:45;;;;;;;13.05;11.75;;;;;;;17.03;77.20;102081.66;5050325;28;20029;-77
2023/05/13 08:48:14;;;;;;;14.90;12.82;;;;;;;17.11;76.06;102073.53;5040325;28;20028;-78
2023/05/13 08:50:40;;;;;;;14.23;12.35;;;;;;;17.12;77.15;102075.25;5051984;28;20099;-78
2023/05/13 08:53:05;;;;;;;15.23;12.40;;;;;;;17.26;78.68;102077.44;5051525;28;20461;-78
2023/05/13 08:55:31;;;;;;;14.93;13.35;;;;;;;17.39;79.38;102075.28;5051449;28;20033;-78
2023/05/13 08:57:57;;;;;;;15.93;13.13;;;;;;;17.47;79.89;102081.19;5050946;28;20527;-78
2023/05/13 09:00:22;;;;;;;21.48;13.07;;;;;;;17.48;79.06;102072.34;5051113;28;20094;-78
2023/05/13 09:02:49;;;;;;;16.05;13.45;;;;;;;17.58;81.12;102083.47;5051411;28;20025;-78
2023/05/13 09:05:14;;;;;;;16.17;13.93;;;;;;;17.61;78.19;102068.41;5050576;28;20100;-78
2023/05/13 09:07:39;;;;;;;16.25;13.70;;;;;;;17.70;80.58;102075.16;5050579;28;20103;-81
2023/05/13 09:10:06;;;;;;;15.18;13.60;;;;;;;17.81;79.74;102070.38;5053644;28;20027;-75
2023/05/13 09:12:44;;;;;;;14.10;12.65;;;;;;;17.84;76.27;102072.06;5055196;28;20052;-77
2023/05/13 09:15:11;;;;;;;15.07;12.88;;;;;;;17.89;74.59;102071.00;5052472;28;20032;-78
2023/05/13 09:17:38;;;;;;;18.52;13.60;;;;;;;18.01;76.65;102074.97;5062778;28;20040;-78
2023/05/13 09:20:09;;;;;;;13.35;11.90;;;;;;;18.00;73.27;102066.19;5056037;28;20119;-77
2023/05/13 09:23:02;;;;;;;13.32;12.02;;;;;;;18.11;75.31;102072.88;5055272;28;20064;-74
2023/05/13 09:25:29;;;;;;;15.15;13.60;;;;;;;18.22;74.05;102057.53;5053308;28;20078;-75
2023/05/13 09:27:57;;;;;;;14.55;13.05;;;;;;;18.37;71.63;102067.50;5053885;28;20120;-75
2023/05/13 09:30:24;;;;;;;15.55;13.60;;;;;;;18.39;71.89;102065.69;5051381;28;20052;-75
2023/05/13 09:33:09;;;;;;;16.02;13.73;;;;;;;18.44;72.79;102055.84;5055643;28;20025;-75
2023/05/13 09:35:39;;;;;;;18.35;12.52;;;;;;;18.51;68.75;102050.28;5054469;28;20060;-75
2023/05/13 09:38:12;;;;;;;16.00;13.30;;;;;;;18.58;70.16;102065.00;5053539;28;20029;-75
2023/05/13 09:40:37;;;;;;;;;;;;;;;18.72;75.57;102052.16;5054394;28;20078;-74
2023/05/13 09:43:04;;;;;;;14.90;12.10;;;;;;;18.94;72.92;102057.50;5054455;28;19917;-75
2023/05/13 09:45:30;;;;;;;16.02;12.77;;;;;;;18.98;66.35;102060.88;5055063;28;20286;-75
2023/05/13 09:47:56;;;;;;;13.90;12.52;;;;;;;19.06;70.14;102045.56;5052621;28;20460;-75
2023/05/13 09:50:21;;;;;;;14.68;13.27;;;;;;;19.17;65.31;102048.66;5055588;28;20104;-75
2023/05/13 09:52:48;;;;;;;15.60;13.38;;;;;;;19.18;68.08;102042.44;5053667;28;20040;-75
2023/05/13 09:55:13;;;;;;;15.27;12.73;;;;;;;19.34;65.82;102056.75;5055692;28;20024;-75
2023/05/13 09:57:39;;;;;;;13.70;11.48;;;;;;;19.47;70.50;102048.31;5053640;28;20029;-75
2023/05/13 10:00:05;;;;;;;13.57;12.18;;;;;;;19.56;68.61;102040.00;5055651;28;20494;-74
2023/05/13 10:02:31;;;;;;;18.70;12.10;;;;;;;19.84;67.35;102039.69;5066052;28;20032;-75
2023/05/13 10:05:00;;;;;;;12.82;11.00;;;;;;;19.92;64.69;102029.66;5056417;28;20029;-75
2023/05/13 10:07:27;;;;;;;14.75;12.80;;;;;;;20.03;61.41;102037.09;5054203;28;20029;-75
2023/05/13 10:10:00;;;;;;;13.55;11.90;;;;;;;20.16;63.65;102032.13;5055005;28;20083;-75
2023/05/13 10:12:27;;;;;;;14.80;11.00;;;;;;;20.13;62.38;102042.84;5054764;28;20025;-75
2023/05/13 10:14:54;;;;;;;15.75;11.52;;;;;;;20.17;63.54;102045.28;5054541;28;20052;-75
2023/05/13 10:17:23;;;;;;;16.77;11.73;;;;;;;20.13;64.06;102042.84;5054345;28;20048;-75
2023/05/13 10:19:51;;;;;;;15.13;11.38;;;;;;;20.17;59.48;102034.69;5052413;28;20021;-75
2023/05/13 10:22:25;;;;;;;11.50;10.18;;;;;;;20.33;59.68;102030.44;5055120;28;20048;-75
2023/05/13 10:24:51;;;;;;;13.50;12.10;;;;;;;20.26;58.29;102021.03;5054885;28;20036;-75
2023/05/13 10:27:17;;;;;;;14.20;11.32;;;;;;;20.32;59.01;102020.78;5054185;28;20029;-75
2023/05/13 10:29:43;;;;;;;11.70;10.57;;;;;;;20.56;60.32;102034.69;5054426;28;20078;-75
2023/05/13 10:32:10;;;;;;;10.07;9.07;;;;;;;20.63;58.38;102011.41;5053813;28;20071;-75
2023/05/13 10:34:36;;;;;;;9.82;8.80;;;;;;;21.01;59.32;102022.00;5053918;28;20472;-76
2023/05/13 10:37:10;;;;;;;10.57;8.85;;;;;;;21.02;55.36;102026.34;5051612;28;20064;-75
2023/05/13 10:40:11;;;;;;;11.75;9.55;;;;;;;21.09;56.38;102027.78;5054620;28;20025;-75
2023/05/13 10:42:49;;;;;;;10.60;9.10;;;;;;;21.09;58.69;102017.19;5038808;28;20029;-75
2023/05/13 10:45:15;;;;;;;11.13;8.65;;;;;;;21.29;57.22;102024.16;5053668;28;20477;-75
2023/05/13 10:47:41;;;;;;;10.20;9.10;;;;;;;21.39;55.12;102021.94;5051665;28;20036;-75
2023/05/13 10:50:21;;;;;;;11.07;9.25;;;;;;;21.51;56.95;102016.00;5050532;28;20048;-75
2023/05/13 10:52:47;;;;;;;10.43;8.93;;;;;;;21.60;51.42;102010.22;5050567;28;20033;-75
2023/05/13 10:55:19;;;;;;;9.77;7.63;;;;;;;21.70;54.42;102022.06;5052937;28;20033;-75
2023/05/13 10:58:07;;;;;;;8.05;7.25;;;;;;;21.82;54.11;102009.13;5049404;28;20385;-75
2023/05/13 11:00:33;;;;;;;9.32;7.32;;;;;;;21.97;52.75;102010.94;5054407;28;20021;-75
2023/05/13 11:03:24;;;;;;;9.45;7.65;;;;;;;22.01;50.81;102009.88;5052327;28;20361;-75